Time;durP1;ratioP1;P1;durP2;ratioP2;P2;SDS_P1;SDS_P2;PMS_P1;PMS_P2;Temp;Humidity;BMP_temperature;BMP_pressure;BME280_temperature;BME280_humidity;BME280_pressure;Samples;Min_cycle;Max_cycle;Signal;HPM_P1;HPM_P2
2022/11/01 00:01:21;;;;;;;17.70;8.50;;;13.20;99.90;;;;;;5055942;28;20040;-93
2022/11/01 00:03:47;;;;;;;17.30;8.40;;;13.30;99.90;;;;;;5022925;28;20040;-92
2022/11/01 00:06:13;;;;;;;17.80;8.33;;;13.20;99.90;;;;;;5039462;28;20051;-92
2022/11/01 00:08:38;;;;;;;19.75;8.38;;;13.20;99.90;;;;;;5037232;28;20338;-92
2022/11/01 00:11:06;;;;;;;14.32;7.80;;;13.20;99.90;;;;;;5038467;28;20071;-93
2022/11/01 00:13:32;;;;;;;19.30;8.70;;;13.20;99.90;;;;;;5054892;28;20971;-93
2022/11/01 00:15:58;;;;;;;18.10;8.63;;;13.20;99.90;;;;;;5055562;28;20488;-93
2022/11/01 00:18:24;;;;;;;22.20;9.23;;;13.20;99.90;;;;;;5055725;28;20036;-92
2022/11/01 00:20:50;;;;;;;15.77;8.82;;;13.20;99.90;;;;;;5038846;28;20032;-92
2022/11/01 00:23:16;;;;;;;18.23;8.93;;;13.20;99.90;;;;;;5055507;28;20424;-91
2022/11/01 00:25:41;;;;;;;16.98;8.40;;;13.20;99.90;;;;;;5055212;28;20068;-92
2022/11/01 00:28:07;;;;;;;19.58;8.45;;;13.20;99.90;;;;;;5038460;28;20044;-91
2022/11/01 00:30:37;;;;;;;24.42;8.73;;;13.20;99.90;;;;;;5054730;28;20037;-91
2022/11/01 00:33:03;;;;;;;18.52;8.65;;;13.20;99.90;;;;;;5054673;28;20037;-91
2022/11/01 00:35:31;;;;;;;18.98;8.23;;;13.20;99.90;;;;;;5054616;28;20559;-91
2022/11/01 00:37:58;;;;;;;17.17;8.07;;;13.20;99.90;;;;;;5054534;28;20123;-91
2022/11/01 00:40:24;;;;;;;15.98;7.93;;;13.20;99.90;;;;;;5054005;28;20135;-92
2022/11/01 00:42:50;;;;;;;17.73;7.45;;;13.20;99.90;;;;;;5054319;28;20040;-92
2022/11/01 00:45:16;;;;;;;13.40;7.78;;;13.20;99.90;;;;;;5054761;28;20101;-91
2022/11/01 00:47:42;;;;;;;18.58;8.10;;;13.20;99.90;;;;;;5037867;28;20041;-89
2022/11/01 00:50:08;;;;;;;15.88;7.70;;;13.20;99.90;;;;;;5037928;28;20444;-92
2022/11/01 00:52:34;;;;;;;17.13;7.28;;;13.30;99.90;;;;;;5038638;28;20039;-91
2022/11/01 00:54:59;;;;;;;15.52;7.55;;;13.30;99.90;;;;;;5054672;28;20041;-91
2022/11/01 00:57:25;;;;;;;19.17;6.82;;;13.30;99.90;;;;;;5071197;28;20545;-91
2022/11/01 00:59:51;;;;;;;15.60;6.70;;;13.40;99.90;;;;;;5055255;28;20381;-91
2022/11/01 01:02:16;;;;;;;14.98;6.63;;;13.40;99.90;;;;;;5020209;28;20279;-91
2022/11/01 01:04:42;;;;;;;18.75;7.20;;;13.40;99.90;;;;;;5036791;28;20037;-92
2022/11/01 01:07:08;;;;;;;19.95;6.95;;;13.50;99.90;;;;;;5071336;28;20123;-92
2022/11/01 01:09:34;;;;;;;15.25;6.00;;;13.50;99.90;;;;;;5037608;28;20044;-92
2022/11/01 01:12:01;;;;;;;14.15;6.28;;;13.50;99.90;;;;;;5071194;28;20040;-91
2022/11/01 01:14:27;;;;;;;16.45;6.88;;;13.60;99.90;;;;;;5037711;28;20104;-92
2022/11/01 01:16:53;;;;;;;14.95;6.28;;;13.60;99.90;;;;;;5036163;28;20045;-91
2022/11/01 01:19:19;;;;;;;13.67;6.03;;;13.60;99.90;;;;;;5038370;28;20032;-91
2022/11/01 01:21:45;;;;;;;13.95;6.72;;;13.70;99.90;;;;;;5054262;28;20313;-91
2022/11/01 01:24:11;;;;;;;13.32;6.47;;;13.70;99.90;;;;;;5054111;28;20040;-90
2022/11/01 01:26:36;;;;;;;14.85;6.28;;;13.80;99.90;;;;;;5054203;28;20093;-90
2022/11/01 01:29:02;;;;;;;14.90;5.90;;;13.80;99.90;;;;;;5054315;28;20029;-91
2022/11/01 01:31:28;;;;;;;14.98;6.38;;;13.90;99.90;;;;;;5037077;28;20701;-91
2022/11/01 01:33:53;;;;;;;12.57;6.18;;;13.90;99.90;;;;;;5054175;28;20086;-91
2022/11/01 01:36:19;;;;;;;12.35;6.07;;;14.00;99.90;;;;;;5019660;28;20032;-91
2022/11/01 01:38:45;;;;;;;11.75;5.43;;;14.00;99.90;;;;;;5053711;28;20154;-91
2022/11/01 01:43:55;;;;;;;10.18;5.88;;;14.10;99.90;;;;;;5056365;28;20279;-91
2022/11/01 01:46:21;;;;;;;14.00;6.07;;;14.20;99.90;;;;;;5053890;28;20040;-90
2022/11/01 01:48:51;;;;;;;14.32;6.07;;;14.20;99.90;;;;;;5053407;28;20033;-90
2022/11/01 01:51:21;;;;;;;12.07;5.72;;;14.20;99.90;;;;;;5070605;28;20048;-91
2022/11/01 01:53:52;;;;;;;12.48;6.38;;;14.20;99.90;;;;;;5070633;28;20063;-91
2022/11/01 01:56:25;;;;;;;14.07;5.72;;;14.30;99.90;;;;;;5070914;28;20502;-91
2022/11/01 01:59:01;;;;;;;11.48;6.30;;;14.30;99.90;;;;;;5054401;28;20033;-91
2022/11/01 02:01:28;;;;;;;13.50;5.88;;;14.30;99.90;;;;;;5058238;28;21650;-91
2022/11/01 02:03:54;;;;;;;16.33;7.00;;;14.30;99.90;;;;;;5041372;28;20492;-91
2022/11/01 02:06:21;;;;;;;12.05;6.13;;;14.30;99.90;;;;;;5058303;28;20037;-91
2022/11/01 02:08:51;;;;;;;13.00;6.93;;;14.30;99.90;;;;;;5057752;28;20041;-90
2022/11/01 02:11:18;;;;;;;19.38;6.70;;;14.20;99.90;;;;;;5071878;28;20091;-91
2022/11/01 02:13:44;;;;;;;13.13;6.50;;;14.20;99.90;;;;;;5057410;28;20062;-91
2022/11/01 02:16:13;;;;;;;12.73;5.78;;;14.20;99.90;;;;;;5074434;28;20115;-91
2022/11/01 02:18:54;;;;;;;11.85;5.88;;;14.20;99.90;;;;;;5057688;28;20032;-91
2022/11/01 02:21:31;;;;;;;11.43;5.50;;;14.20;99.90;;;;;;5057301;28;20059;-92
2022/11/01 02:24:19;;;;;;;11.57;5.30;;;14.20;99.90;;;;;;5057414;28;20380;-91
2022/11/01 02:27:05;;;;;;;14.20;6.10;;;14.20;99.90;;;;;;5057629;28;20040;-91
2022/11/01 02:29:43;;;;;;;11.20;5.47;;;14.20;99.90;;;;;;5074243;28;20032;-91
2022/11/01 02:32:33;;;;;;;10.07;5.53;;;14.20;99.90;;;;;;5057537;28;20037;-91
2022/11/01 02:35:15;;;;;;;13.73;6.18;;;14.20;99.90;;;;;;5073839;28;20078;-91
2022/11/01 02:38:09;;;;;;;12.00;5.28;;;14.20;99.90;;;;;;5056354;28;20040;-92
2022/11/01 02:40:53;;;;;;;12.07;5.70;;;14.20;99.90;;;;;;5033846;28;20055;-91
2022/11/01 02:43:27;;;;;;;10.02;6.30;;;14.30;99.90;;;;;;5057551;28;20511;-91
2022/11/01 02:45:54;;;;;;;9.80;5.20;;;14.30;99.90;;;;;;5057243;28;20043;-90
2022/11/01 02:48:22;;;;;;;10.63;5.47;;;14.30;99.90;;;;;;5040904;28;20043;-91
2022/11/01 02:50:55;;;;;;;11.30;5.65;;;14.30;99.90;;;;;;5021987;28;20125;-92
2022/11/01 02:53:21;;;;;;;13.90;5.35;;;14.30;99.90;;;;;;5054925;28;20538;-91
2022/11/01 02:55:49;;;;;;;15.30;5.38;;;14.30;99.90;;;;;;5056356;28;20040;-91
2022/11/01 02:58:23;;;;;;;14.95;5.72;;;14.30;99.90;;;;;;5056875;28;20039;-91
2022/11/01 03:00:50;;;;;;;13.30;6.07;;;14.30;99.90;;;;;;5070854;28;20040;-92
2022/11/01 03:03:28;;;;;;;11.20;5.18;;;14.30;99.90;;;;;;5056429;28;20408;-91
2022/11/01 03:05:57;;;;;;;;;;;14.30;99.90;;;;;;5073177;28;20055;-92
2022/11/01 03:08:40;;;;;;;11.15;5.18;;;14.30;99.90;;;;;;5056060;28;20054;-92
2022/11/01 03:11:12;;;;;;;11.52;5.25;;;14.40;99.90;;;;;;5071775;28;20116;-92
2022/11/01 03:13:42;;;;;;;10.70;5.32;;;14.40;99.90;;;;;;5055620;28;20052;-91
2022/11/01 03:16:18;;;;;;;12.10;5.40;;;14.40;99.90;;;;;;5056180;28;20040;-91
2022/11/01 03:18:55;;;;;;;11.63;5.53;;;14.40;99.90;;;;;;5070314;28;20101;-91
2022/11/01 03:21:24;;;;;;;10.77;4.80;;;14.40;99.90;;;;;;5055862;28;20037;-92
2022/11/01 03:24:01;;;;;;;12.93;5.18;;;14.40;99.90;;;;;;5054725;28;20040;-79
2022/11/01 03:26:32;;;;;;;9.73;5.00;;;14.40;99.90;;;;;;5055045;28;20048;-78
2022/11/01 03:29:02;;;;;;;13.60;5.18;;;14.40;99.90;;;;;;5054473;28;20044;-78
2022/11/01 03:31:31;;;;;;;14.15;5.28;;;14.40;99.90;;;;;;5054603;28;20369;-78
2022/11/01 03:34:00;;;;;;;13.10;4.90;;;14.50;99.90;;;;;;5054251;28;20045;-78
2022/11/01 03:36:31;;;;;;;10.77;5.38;;;14.50;99.90;;;;;;5071439;28;20127;-78
2022/11/01 03:39:04;;;;;;;11.07;5.40;;;14.50;99.90;;;;;;5071099;28;20107;-78
2022/11/01 03:41:36;;;;;;;13.55;5.30;;;14.60;99.90;;;;;;5054486;28;20043;-79
2022/11/01 03:44:03;;;;;;;10.68;5.47;;;14.60;99.90;;;;;;5054140;28;20500;-78
2022/11/01 03:46:29;;;;;;;9.95;5.00;;;14.60;99.90;;;;;;5054584;28;20443;-79
2022/11/01 03:48:55;;;;;;;10.27;4.78;;;14.70;99.90;;;;;;5070952;28;20039;-79
2022/11/01 03:51:20;;;;;;;12.63;5.22;;;14.70;99.90;;;;;;5038218;28;20103;-79
2022/11/01 03:53:46;;;;;;;11.27;4.80;;;14.60;99.90;;;;;;5037949;28;20028;-79
2022/11/01 03:56:12;;;;;;;9.47;4.30;;;14.70;99.90;;;;;;5054495;28;20276;-79
2022/11/01 03:58:42;;;;;;;11.95;5.22;;;14.70;99.90;;;;;;5054512;28;20688;-79
2022/11/01 04:01:13;;;;;;;11.43;4.97;;;14.70;99.90;;;;;;5070419;28;20055;-78
2022/11/01 04:03:39;;;;;;;12.15;4.88;;;14.80;99.90;;;;;;5070828;28;20086;-79
2022/11/01 04:06:06;;;;;;;10.50;4.15;;;14.80;99.90;;;;;;5037020;28;20044;-79
2022/11/01 04:08:32;;;;;;;9.38;4.78;;;14.80;99.90;;;;;;5037883;28;20037;-79
2022/11/01 04:10:58;;;;;;;7.88;4.50;;;14.80;99.90;;;;;;5036942;28;20491;-79
2022/11/01 04:13:23;;;;;;;9.55;4.20;;;14.80;99.90;;;;;;5037335;28;20048;-79
2022/11/01 04:21:20;;;;;;;10.40;4.60;;;14.80;99.90;;;;;;5039958;28;20042;-79
2022/11/01 04:23:46;;;;;;;8.38;4.10;;;14.80;99.90;;;;;;5070333;28;20040;-79
2022/11/01 04:26:20;;;;;;;12.00;4.50;;;14.90;99.90;;;;;;5053083;28;20127;-79
2022/11/01 04:28:58;;;;;;;10.65;4.50;;;14.80;99.90;;;;;;5070468;28;20032;-79
2022/11/01 04:31:29;;;;;;;10.43;4.65;;;14.80;99.90;;;;;;5070470;28;20488;-79
2022/11/01 04:33:56;;;;;;;11.45;4.18;;;14.90;99.90;;;;;;5053561;28;20485;-79
2022/11/01 04:36:22;;;;;;;12.98;4.38;;;14.90;99.90;;;;;;5037369;28;20051;-79
2022/11/01 04:38:50;;;;;;;10.18;4.30;;;14.90;99.90;;;;;;5052602;28;20071;-79
2022/11/01 04:41:17;;;;;;;9.23;4.40;;;15.00;99.90;;;;;;5035656;28;20116;-79
2022/11/01 04:43:43;;;;;;;8.60;4.10;;;15.00;99.90;;;;;;5052336;28;20028;-79
2022/11/01 04:46:08;;;;;;;9.60;4.07;;;15.00;99.90;;;;;;5052753;28;20427;-79
2022/11/01 04:48:34;;;;;;;10.88;3.85;;;14.90;99.90;;;;;;5020357;28;20047;-78
2022/11/01 04:51:01;;;;;;;10.37;3.97;;;14.90;99.90;;;;;;5035984;28;20063;-78
2022/11/01 04:53:28;;;;;;;9.15;4.47;;;14.90;99.90;;;;;;5053169;28;20356;-79
2022/11/01 04:55:54;;;;;;;11.50;3.97;;;14.90;99.90;;;;;;5037030;28;20075;-78
2022/11/01 04:58:20;;;;;;;10.23;3.70;;;15.00;99.90;;;;;;5053171;28;20036;-79
2022/11/01 05:00:45;;;;;;;7.55;4.22;;;15.00;99.90;;;;;;5036630;28;20512;-79
2022/11/01 05:03:11;;;;;;;11.05;3.75;;;15.10;99.90;;;;;;5052958;28;20154;-79
2022/11/01 05:05:38;;;;;;;9.85;4.00;;;15.10;99.90;;;;;;5036744;28;20484;-79
2022/11/01 05:08:10;;;;;;;9.80;3.35;;;15.10;99.90;;;;;;5036269;28;20052;-79
2022/11/01 05:10:39;;;;;;;7.72;3.58;;;15.20;99.90;;;;;;5050796;28;20029;-79
2022/11/01 05:13:05;;;;;;;5.20;3.67;;;15.30;99.90;;;;;;5052561;28;20376;-79
2022/11/01 05:15:31;;;;;;;7.57;3.40;;;15.30;99.90;;;;;;5036482;28;20033;-77
2022/11/01 05:17:57;;;;;;;5.57;2.63;;;15.30;99.90;;;;;;5036223;28;20047;-78
2022/11/01 05:20:23;;;;;;;13.35;3.92;;;15.40;99.90;;;;;;5052714;28;20032;-78
2022/11/01 05:22:48;;;;;;;8.30;3.05;;;15.30;99.90;;;;;;5053358;28;20037;-76
2022/11/01 05:25:15;;;;;;;11.20;3.15;;;15.40;99.90;;;;;;5069063;28;20028;-79
2022/11/01 05:27:40;;;;;;;8.40;3.50;;;15.40;99.90;;;;;;5053434;28;20040;-78
2022/11/01 05:30:07;;;;;;;7.90;3.40;;;15.40;99.90;;;;;;5036286;28;20102;-77
2022/11/01 05:32:34;;;;;;;5.55;3.20;;;15.50;99.90;;;;;;5051699;28;20048;-78
2022/11/01 05:35:00;;;;;;;10.10;3.00;;;15.50;99.90;;;;;;5052342;28;20037;-79
2022/11/01 05:37:26;;;;;;;;;;;15.60;99.90;;;;;;5037122;28;20041;-78
2022/11/01 05:39:51;;;;;;;8.02;3.15;;;15.70;99.90;;;;;;5053194;28;19923;-80
2022/11/01 05:42:17;;;;;;;7.20;2.50;;;15.70;99.90;;;;;;5052315;28;20081;-79
2022/11/01 05:44:43;;;;;;;6.03;2.35;;;15.90;99.90;;;;;;5036748;28;20372;-79
2022/11/01 05:47:09;;;;;;;7.25;2.00;;;16.00;99.90;;;;;;5035530;28;20040;-79
2022/11/01 05:49:34;;;;;;;6.45;2.00;;;16.00;99.90;;;;;;5019366;28;20036;-78
2022/11/01 05:52:00;;;;;;;3.70;1.50;;;15.90;99.90;;;;;;5035385;28;20080;-78
2022/11/01 05:54:26;;;;;;;3.77;1.37;;;16.00;99.90;;;;;;5036502;28;20040;-76
2022/11/01 05:56:51;;;;;;;5.28;1.90;;;16.00;99.90;;;;;;5068778;28;20279;-76
2022/11/01 05:59:17;;;;;;;2.28;1.10;;;15.80;99.90;;;;;;5068112;28;20041;-76
2022/11/01 06:01:43;;;;;;;6.10;1.40;;;15.80;99.90;;;;;;5069452;28;20055;-76
2022/11/01 06:04:08;;;;;;;4.63;1.10;;;15.60;99.90;;;;;;5052573;28;20041;-75
2022/11/01 06:06:34;;;;;;;2.20;1.13;;;15.60;99.90;;;;;;5069060;28;20108;-75
2022/11/01 06:09:00;;;;;;;7.05;1.25;;;15.50;99.90;;;;;;5069410;28;20040;-75
2022/11/01 06:11:26;;;;;;;2.05;0.70;;;15.50;99.90;;;;;;5052142;28;20464;-76
2022/11/01 06:13:56;;;;;;;3.10;0.80;;;15.40;99.90;;;;;;5035830;28;20043;-76
2022/11/01 06:16:22;;;;;;;1.95;0.85;;;15.30;99.90;;;;;;5066512;28;20040;-76
2022/11/01 06:18:48;;;;;;;2.60;0.52;;;15.30;99.90;;;;;;5068946;28;20033;-76
2022/11/01 06:21:14;;;;;;;4.68;0.82;;;15.20;99.90;;;;;;5068620;28;20044;-76
2022/11/01 06:23:40;;;;;;;3.22;0.73;;;14.50;99.90;;;;;;5052292;28;20078;-76
2022/11/01 06:26:06;;;;;;;3.40;0.82;;;15.00;99.90;;;;;;5052084;28;20503;-76
2022/11/01 06:28:32;;;;;;;3.83;0.68;;;14.90;99.90;;;;;;5052123;28;20122;-76
2022/11/01 06:31:03;;;;;;;5.82;0.95;;;14.90;99.90;;;;;;5052378;28;20049;-76
2022/11/01 06:33:29;;;;;;;3.25;0.63;;;14.90;99.90;;;;;;5052101;28;20048;-76
2022/11/01 06:35:55;;;;;;;3.90;0.70;;;14.80;99.90;;;;;;5052148;28;20064;-76
2022/11/01 06:38:21;;;;;;;2.50;0.70;;;14.70;99.90;;;;;;5051993;28;20079;-76
2022/11/01 06:40:47;;;;;;;2.77;0.67;;;14.70;99.90;;;;;;5068809;28;20298;-76
2022/11/01 06:43:13;;;;;;;3.00;0.65;;;14.80;99.90;;;;;;5068605;28;20809;-76
2022/11/01 06:45:39;;;;;;;3.17;0.90;;;14.70;99.90;;;;;;5069244;28;20373;-76
2022/11/01 06:48:05;;;;;;;2.30;0.52;;;14.70;99.90;;;;;;5038937;28;20074;-76
2022/11/01 06:50:31;;;;;;;2.13;0.73;;;14.60;99.90;;;;;;5071790;28;20397;-76
2022/11/01 06:52:57;;;;;;;5.07;0.45;;;14.60;99.90;;;;;;5072285;28;20032;-76
2022/11/01 06:55:24;;;;;;;2.60;0.68;;;14.60;99.90;;;;;;5038588;28;20040;-76
2022/11/01 06:58:09;;;;;;;5.47;0.60;;;14.60;99.90;;;;;;5072097;28;20109;-76
2022/11/01 07:00:34;;;;;;;3.58;0.77;;;14.50;99.90;;;;;;5071947;28;20044;-76
2022/11/01 07:03:05;;;;;;;3.85;0.70;;;14.40;99.90;;;;;;5072306;28;20040;-76
2022/11/01 07:05:33;;;;;;;4.88;0.63;;;14.50;99.90;;;;;;5071739;28;20036;-76
2022/11/01 07:07:59;;;;;;;4.57;1.13;;;14.30;99.90;;;;;;5071262;28;20101;-76
2022/11/01 07:10:26;;;;;;;1.42;0.60;;;14.40;99.90;;;;;;5070909;28;20043;-76
2022/11/01 07:13:03;;;;;;;6.35;1.25;;;14.30;99.90;;;;;;5055257;28;20481;-76
2022/11/01 07:15:29;;;;;;;4.18;0.80;;;14.30;99.90;;;;;;5055202;28;20465;-76
2022/11/01 07:17:59;;;;;;;5.30;0.60;;;14.40;99.90;;;;;;5055274;28;20116;-85
2022/11/01 07:20:26;;;;;;;6.95;0.80;;;14.40;99.90;;;;;;5069565;28;20051;-84
2022/11/01 07:22:59;;;;;;;7.55;0.88;;;14.40;99.90;;;;;;5071789;28;20044;-84
2022/11/01 07:25:25;;;;;;;8.25;1.00;;;14.30;99.90;;;;;;5077128;28;20032;-84
2022/11/01 07:27:51;;;;;;;7.60;0.88;;;14.40;99.90;;;;;;5073395;28;20052;-84
2022/11/01 07:30:17;;;;;;;6.00;0.73;;;14.50;99.90;;;;;;5056267;28;20116;-84
2022/11/01 07:32:42;;;;;;;4.30;0.82;;;14.60;99.90;;;;;;5040553;28;20039;-84
2022/11/01 07:35:08;;;;;;;5.87;0.80;;;14.70;99.90;;;;;;5056962;28;20040;-84
2022/11/01 07:37:34;;;;;;;3.92;1.10;;;15.00;99.90;;;;;;5056219;28;20322;-85
2022/11/01 07:40:02;;;;;;;5.85;0.98;;;15.30;99.90;;;;;;5039923;28;20039;-83
2022/11/01 07:42:28;;;;;;;7.65;1.13;;;15.60;99.90;;;;;;5036289;28;20119;-84
2022/11/01 07:44:53;;;;;;;4.38;1.02;;;15.70;99.90;;;;;;5056680;28;20127;-84
2022/11/01 07:47:19;;;;;;;2.75;0.50;;;15.60;99.90;;;;;;5055992;28;20052;-84
2022/11/01 07:49:46;;;;;;;5.50;0.90;;;15.50;99.90;;;;;;5073104;28;20124;-85
2022/11/01 07:52:12;;;;;;;4.57;0.88;;;15.30;99.90;;;;;;5072551;28;20110;-84
2022/11/01 07:54:38;;;;;;;7.78;0.90;;;15.10;99.90;;;;;;5039090;28;20554;-84
2022/11/01 07:57:03;;;;;;;6.82;0.93;;;15.30;99.90;;;;;;5055570;28;20048;-85
2022/11/01 07:59:29;;;;;;;6.13;0.88;;;15.60;99.90;;;;;;5055497;28;20024;-84
2022/11/01 08:01:55;;;;;;;8.18;1.13;;;16.10;99.90;;;;;;5039233;28;20048;-85
2022/11/01 08:04:20;;;;;;;6.20;0.90;;;16.30;99.90;;;;;;5055173;28;20044;-83
2022/11/01 08:06:46;;;;;;;13.47;1.47;;;16.10;99.90;;;;;;5054273;28;20317;-84
2022/11/01 08:09:12;;;;;;;5.93;0.80;;;15.90;99.90;;;;;;5070816;28;20278;-84
2022/11/01 08:11:37;;;;;;;6.20;1.07;;;15.80;99.90;;;;;;5053999;28;20643;-84
2022/11/01 08:14:03;;;;;;;6.57;1.07;;;15.70;99.90;;;;;;5053922;28;20356;-83
2022/11/01 08:16:29;;;;;;;11.15;1.63;;;15.60;99.90;;;;;;5070765;28;20306;-84
2022/11/01 08:18:54;;;;;;;6.15;1.00;;;15.60;99.90;;;;;;5054126;28;20195;-84
2022/11/01 08:21:20;;;;;;;5.32;0.80;;;15.70;99.90;;;;;;5053552;28;20645;-85
2022/11/01 08:23:46;;;;;;;5.65;0.90;;;15.70;99.90;;;;;;5070687;28;20048;-85
2022/11/01 08:26:12;;;;;;;4.88;1.20;;;15.70;99.90;;;;;;5071109;28;20032;-84
2022/11/01 08:28:38;;;;;;;8.40;1.20;;;15.60;99.90;;;;;;5070907;28;20488;-84
2022/11/01 08:31:08;;;;;;;7.63;1.08;;;15.50;99.90;;;;;;5070581;28;20059;-84
2022/11/01 08:33:34;;;;;;;8.95;1.25;;;15.60;99.90;;;;;;5051225;28;20040;-84
2022/11/01 08:36:00;;;;;;;9.40;1.30;;;15.60;99.90;;;;;;5070551;28;20126;-84
2022/11/01 08:38:26;;;;;;;7.53;1.30;;;15.70;99.90;;;;;;5071507;28;20037;-84
2022/11/01 08:40:53;;;;;;;8.60;1.17;;;15.50;99.90;;;;;;5071243;28;20040;-84
2022/11/01 08:43:19;;;;;;;;;;;15.40;99.90;;;;;;5071569;28;20040;-84
2022/11/01 08:45:45;;;;;;;7.00;1.42;;;15.30;99.90;;;;;;5055232;28;20011;-85
2022/11/01 08:48:10;;;;;;;10.50;1.85;;;15.30;99.90;;;;;;5054816;28;20043;-84
2022/11/01 08:50:36;;;;;;;5.70;1.43;;;15.10;99.90;;;;;;5054218;28;20040;-85
2022/11/01 08:53:07;;;;;;;7.20;1.17;;;15.10;99.90;;;;;;5070697;28;20851;-85
2022/11/01 08:55:33;;;;;;;12.43;1.77;;;15.10;99.90;;;;;;5071018;28;20439;-85
2022/11/01 08:57:59;;;;;;;10.27;1.65;;;15.10;99.90;;;;;;5054449;28;20036;-84
2022/11/01 09:00:25;;;;;;;9.35;1.20;;;15.00;99.90;;;;;;5070488;28;20036;-85
2022/11/01 09:02:51;;;;;;;7.78;1.23;;;15.10;99.90;;;;;;5070789;28;20029;-85
2022/11/01 09:05:17;;;;;;;11.27;1.40;;;15.10;99.90;;;;;;5036985;28;20028;-85
2022/11/01 09:07:43;;;;;;;9.95;1.92;;;15.20;99.90;;;;;;5069427;28;20074;-86
2022/11/01 09:10:09;;;;;;;9.45;1.50;;;15.30;99.90;;;;;;5052940;28;20032;-83
2022/11/01 09:12:35;;;;;;;;;;;15.60;99.90;;;;;;5070734;28;20040;-85
2022/11/01 09:15:03;;;;;;;8.23;1.38;;;16.20;99.90;;;;;;5070171;28;19920;-85
2022/11/01 09:17:29;;;;;;;10.35;1.40;;;16.90;99.90;;;;;;5070180;28;20040;-85
2022/11/01 09:19:55;;;;;;;12.73;1.90;;;17.20;99.90;;;;;;5053908;28;20080;-85
2022/11/01 09:22:21;;;;;;;11.50;2.03;;;17.50;99.90;;;;;;5037188;28;20040;-85
2022/11/01 09:24:46;;;;;;;12.65;2.65;;;17.90;99.90;;;;;;5053513;28;20442;-85
2022/11/01 09:27:12;;;;;;;12.70;1.95;;;18.20;99.90;;;;;;5070419;28;20052;-85
2022/11/01 09:29:38;;;;;;;10.05;1.77;;;18.30;99.90;;;;;;5053298;28;20488;-85
2022/11/01 09:32:05;;;;;;;9.50;1.70;;;18.30;99.90;;;;;;5070093;28;20389;-85
2022/11/01 09:34:31;;;;;;;10.35;2.13;;;18.30;99.90;;;;;;5069301;28;20063;-85
2022/11/01 09:36:57;;;;;;;18.75;2.03;;;18.30;99.90;;;;;;5053062;28;20107;-85
2022/11/01 09:39:22;;;;;;;11.95;2.60;;;18.50;99.90;;;;;;5070340;28;20071;-83
2022/11/01 09:42:05;;;;;;;9.30;1.67;;;18.30;99.90;;;;;;5069594;28;20032;-85
2022/11/01 09:44:36;;;;;;;12.77;1.83;;;18.10;99.90;;;;;;5068254;28;20222;-86
2022/11/01 09:47:07;;;;;;;14.68;1.58;;;17.90;99.90;;;;;;5070076;28;20056;-85
2022/11/01 09:49:38;;;;;;;11.07;1.80;;;17.70;99.90;;;;;;5052525;28;20040;-86
2022/11/01 09:52:05;;;;;;;11.93;1.85;;;18.00;99.90;;;;;;5067075;28;20041;-86
2022/11/01 09:54:31;;;;;;;9.48;2.55;;;18.30;99.90;;;;;;5069155;28;20435;-84
2022/11/01 09:57:34;;;;;;;13.20;2.30;;;18.70;99.90;;;;;;5053476;28;20036;-85
2022/11/01 10:00:20;;;;;;;12.15;2.03;;;18.90;99.90;;;;;;5070154;28;20032;-84
2022/11/01 10:03:14;;;;;;;12.95;2.55;;;18.90;99.90;;;;;;5070055;28;20438;-84
2022/11/01 10:05:47;;;;;;;14.02;1.73;;;18.80;99.90;;;;;;5067867;28;20041;-84
2022/11/01 10:08:50;;;;;;;9.52;2.08;;;19.20;99.90;;;;;;5052461;28;20033;-84
2022/11/01 10:11:50;;;;;;;10.93;2.28;;;19.70;99.90;;;;;;5048031;28;20476;-85
2022/11/01 10:14:36;;;;;;;15.43;2.17;;;19.90;99.90;;;;;;5065077;28;20055;-84
2022/11/01 10:17:10;;;;;;;18.40;2.05;;;19.60;99.90;;;;;;5068564;28;20072;-86
2022/11/01 10:19:37;;;;;;;10.75;2.22;;;18.80;99.90;;;;;;5050720;28;20094;-85
2022/11/01 10:22:27;;;;;;;10.73;1.95;;;19.00;99.90;;;;;;5072946;28;20047;-84
2022/11/01 10:25:00;;;;;;;8.65;1.70;;;19.00;99.90;;;;;;5053983;28;20158;-84
2022/11/01 10:27:52;;;;;;;9.60;2.10;;;18.90;99.90;;;;;;5057072;28;20049;-84
2022/11/01 10:30:18;;;;;;;12.73;2.08;;;18.90;99.90;;;;;;5072688;28;20072;-84
2022/11/01 10:33:01;;;;;;;11.43;2.03;;;18.80;99.90;;;;;;5056723;28;20061;-85
2022/11/01 10:36:03;;;;;;;10.18;1.35;;;19.30;99.90;;;;;;5072754;28;20446;-85
2022/11/01 10:38:52;;;;;;;11.95;2.35;;;19.40;99.90;;;;;;5037149;28;20045;-85
2022/11/01 10:41:35;;;;;;;10.90;1.90;;;19.50;99.90;;;;;;5056258;28;20033;-85
2022/11/01 10:44:03;;;;;;;11.32;1.98;;;19.90;99.90;;;;;;5073635;28;20041;-85
2022/11/01 10:46:35;;;;;;;10.45;2.05;;;20.00;99.90;;;;;;5073086;28;20085;-85
2022/11/01 10:49:05;;;;;;;12.18;1.85;;;19.70;99.90;;;;;;5070963;28;20110;-85
2022/11/01 10:51:33;;;;;;;13.93;2.17;;;19.40;99.90;;;;;;5072325;28;20411;-85
2022/11/01 10:54:04;;;;;;;9.32;2.17;;;18.70;99.90;;;;;;5056224;28;20040;-84
2022/11/01 10:56:51;;;;;;;10.18;1.77;;;18.30;99.90;;;;;;5056330;28;20036;-85
2022/11/01 10:59:39;;;;;;;8.73;1.45;;;18.00;99.90;;;;;;5073105;28;20113;-85
2022/11/01 11:02:39;;;;;;;8.52;1.35;;;17.80;99.90;;;;;;5071520;28;20048;-83
2022/11/01 11:05:05;;;;;;;15.30;2.30;;;17.70;99.90;;;;;;5072494;28;20040;-84
2022/11/01 11:07:31;;;;;;;;;;;17.40;99.90;;;;;;5039508;28;20078;-84
2022/11/01 11:10:00;;;;;;;13.57;1.80;;;17.10;99.90;;;;;;5072092;28;19920;-85
2022/11/01 11:12:28;;;;;;;12.70;1.70;;;16.80;99.90;;;;;;5071812;28;20041;-85
2022/11/01 11:15:15;;;;;;;10.35;1.73;;;16.70;99.90;;;;;;5071433;28;20048;-85
2022/11/01 11:17:43;;;;;;;11.40;1.50;;;16.60;99.90;;;;;;5070002;28;20044;-85
2022/11/01 11:20:10;;;;;;;10.65;2.65;;;17.50;99.90;;;;;;5071767;28;20043;-86
2022/11/01 11:22:41;;;;;;;12.93;2.10;;;16.60;99.90;;;;;;5054900;28;20086;-85
2022/11/01 11:25:15;;;;;;;7.85;1.63;;;16.70;99.90;;;;;;5071972;28;20037;-85
2022/11/01 11:27:51;;;;;;;10.32;1.45;;;16.70;99.90;;;;;;5071395;28;20044;-85
2022/11/01 11:30:31;;;;;;;11.52;1.85;;;16.80;99.90;;;;;;5055237;28;20381;-85
2022/11/01 11:32:58;;;;;;;12.55;1.92;;;16.80;99.90;;;;;;5071549;28;20048;-84
2022/11/01 11:35:27;;;;;;;14.13;1.80;;;16.70;99.90;;;;;;5055311;28;20504;-85
2022/11/01 11:37:59;;;;;;;14.82;2.10;;;16.70;99.90;;;;;;5071588;28;20111;-85
2022/11/01 11:40:26;;;;;;;9.30;1.42;;;16.60;99.90;;;;;;5069248;28;20143;-84
2022/11/01 11:43:22;;;;;;;10.30;2.13;;;16.80;99.90;;;;;;5055341;28;20064;-85
2022/11/01 11:46:05;;;;;;;10.93;1.70;;;16.90;99.90;;;;;;5054166;28;20039;-85
2022/11/01 11:48:31;;;;;;;8.75;1.67;;;16.90;99.90;;;;;;5070521;28;20037;-85
2022/11/01 11:51:05;;;;;;;9.80;2.10;;;17.30;99.90;;;;;;5054202;28;20048;-85
2022/11/01 11:53:32;;;;;;;8.77;1.55;;;18.10;99.90;;;;;;5071145;28;20090;-84
2022/11/01 11:56:05;;;;;;;14.13;2.35;;;18.90;99.90;;;;;;5054385;28;20028;-85
2022/11/01 11:58:42;;;;;;;8.82;1.80;;;19.60;99.90;;;;;;5071264;28;20032;-85
2022/11/01 12:01:17;;;;;;;7.45;1.48;;;20.20;99.90;;;;;;5067108;28;20040;-85
2022/11/01 12:03:48;;;;;;;10.05;1.80;;;20.30;99.90;;;;;;5069331;28;20044;-84
2022/11/01 12:06:25;;;;;;;12.82;2.22;;;20.00;99.90;;;;;;5072145;28;20044;-84
2022/11/01 12:08:56;;;;;;;7.97;1.63;;;20.10;99.90;;;;;;5053836;28;20043;-84
2022/11/01 12:11:24;;;;;;;11.65;1.92;;;20.50;99.90;;;;;;5054055;28;20041;-84
2022/11/01 12:14:21;;;;;;;10.00;1.90;;;20.20;99.90;;;;;;5070474;28;20115;-84
2022/11/01 12:16:46;;;;;;;9.43;1.67;;;19.70;99.90;;;;;;5068671;28;20052;-84
2022/11/01 12:19:28;;;;;;;8.93;1.85;;;20.00;99.90;;;;;;5037430;28;20400;-85
2022/11/01 12:21:59;;;;;;;10.20;1.88;;;20.50;99.90;;;;;;5050831;28;20040;-85
2022/11/01 12:24:48;;;;;;;11.32;1.70;;;20.90;99.90;;;;;;5064288;28;20566;-84
2022/11/01 12:27:21;;;;;;;12.35;1.85;;;20.70;99.90;;;;;;5070259;28;20101;-84
2022/11/01 12:29:53;;;;;;;11.45;1.52;;;20.90;99.90;;;;;;5053981;28;20401;-84
2022/11/01 12:32:32;;;;;;;8.98;1.77;;;21.20;99.90;;;;;;5070079;28;20048;-84
2022/11/01 12:35:02;;;;;;;6.88;1.70;;;21.30;99.90;;;;;;5069037;28;20045;-84
2022/11/01 12:37:31;;;;;;;11.20;1.50;;;21.30;99.90;;;;;;5069782;28;20606;-84
2022/11/01 12:40:19;;;;;;;8.20;1.52;;;21.30;99.90;;;;;;5070600;28;20036;-84
2022/11/01 12:43:11;;;;;;;9.07;1.90;;;21.30;99.90;;;;;;5069780;28;20036;-84
2022/11/01 12:45:51;;;;;;;8.10;1.65;;;20.90;99.90;;;;;;5071268;28;20123;-84
2022/11/01 12:48:22;;;;;;;10.48;2.03;;;20.30;99.90;;;;;;5071186;28;20040;-84
2022/11/01 12:50:53;;;;;;;11.57;1.73;;;19.90;99.90;;;;;;5054656;28;20145;-84
2022/11/01 12:53:26;;;;;;;6.40;1.27;;;19.60;99.90;;;;;;5052100;28;20037;-84
2022/11/01 12:55:52;;;;;;;10.85;2.10;;;19.30;99.90;;;;;;5069974;28;20090;-84
2022/11/01 12:58:20;;;;;;;8.52;1.50;;;19.10;99.90;;;;;;5069834;28;20044;-84
2022/11/01 13:00:51;;;;;;;5.45;1.20;;;18.80;99.90;;;;;;5069496;28;20094;-83
2022/11/01 13:03:45;;;;;;;7.32;1.45;;;18.80;99.90;;;;;;5070238;28;20443;-83
2022/11/01 13:06:37;;;;;;;13.45;1.98;;;18.60;99.90;;;;;;5079171;28;20056;-84